Fortune Wing — VRHW2 — position and weather

sailwx.info

Track history (hours):
 
Tides and Currents Weather Stations Pressure Air Temp Water Temp Dewpoint Dewpoint Depression Visibility Wind Speed Wind Dir Waves Ship Positions

Fortune Wing

Last reported at 2014-Jun-17 18:07 UTC. Time now 2014-Jul-23 18:08 UTC.
Position S 27°23' E 154°06'.
Warning: this ship's position is 36 days out of date.

Length 190 m; draft 12 m.

Type: Cargo ship. MMSI: 477389500.

Date/timePositionNaut miles runAvg speedWind from/ knotsBaromVisibWave heightAir tempDewpointWater temp
2014-Jun-17 18:07S 27°23' E 154°06'31911.4
2014-Jun-16 14:07S 32°35' E 152°48'611.4
2014-Jun-16 13:33S 32°41' E 152°46'9 9.1
2014-Jun-16 12:33S 32°45' E 152°37'1212.1
2014-Jun-16 11:33S 32°50' E 152°23'1312.7
2014-Jun-16 10:34S 32°54' E 152°09'1212.4
2014-Jun-16 09:34S 32°59' E 151°56'7 7.4
2014-Jun-16 08:33S 32°55' E 151°48'2 1.7
2014-Jun-16 07:33S 32°54' E 151°46'0 0.0
2014-Jun-16 06:31S 32°54' E 151°46'0 0.0
2014-Jun-16 05:28S 32°54' E 151°46'0 0.1
2014-Jun-16 04:31S 32°54' E 151°46'0 0.1
2014-Jun-16 03:31S 32°54' E 151°46'0 0.1
2014-Jun-16 02:31S 32°54' E 151°46'0 0.0
2014-Jun-16 01:28S 32°54' E 151°46'0 0.0
2014-Jun-16 00:31S 32°54' E 151°46'0 0.0
2014-Jun-15 23:31S 32°54' E 151°46'0 0.0
2014-Jun-15 22:13S 32°54' E 151°46'0 0.1
2014-Jun-15 21:22S 32°54' E 151°46'0 0.1
2014-Jun-15 20:31S 32°54' E 151°46'0 0.0
2014-Jun-15 19:31S 32°54' E 151°46'0 0.1
2014-Jun-15 18:31S 32°54' E 151°46'0 0.0
2014-Jun-15 16:31S 32°54' E 151°46'0 0.0
2014-Jun-15 15:31S 32°54' E 151°46'0 0.1
2014-Jun-15 14:31S 32°54' E 151°46'0 0.1
2014-Jun-15 13:31S 32°54' E 151°46'0 0.0
2014-Jun-15 12:31S 32°54' E 151°46'0 0.0
2014-Jun-15 11:31S 32°54' E 151°46'0 0.0
2014-Jun-15 10:31S 32°54' E 151°46'0 0.1
2014-Jun-15 09:31S 32°54' E 151°46'0 0.1
2014-Jun-15 08:31S 32°54' E 151°46'0 0.0
2014-Jun-15 07:31S 32°54' E 151°46'0 0.0
2014-Jun-15 06:31S 32°54' E 151°46'0 0.1
2014-Jun-15 05:31S 32°54' E 151°46'0 0.0
2014-Jun-15 04:31S 32°54' E 151°46'0 0.0
2014-Jun-15 03:28S 32°54' E 151°46'0 0.0
2014-Jun-15 02:31S 32°54' E 151°46'0 0.0
2014-Jun-15 01:31S 32°54' E 151°46'0 0.1
2014-Jun-15 00:33S 32°54' E 151°46'4 3.9
2014-Jun-14 23:33S 32°55' E 151°51'8 8.4
2014-Jun-14 22:33S 33°03' E 151°54'1212.2
2014-Jun-14 21:33S 33°15' E 151°59'7 2.9
2014-Jun-14 19:07S 33°19' E 152°05'2 2.3
2014-Jun-14 18:13S 33°18' E 152°03'2 2.4
2014-Jun-14 17:31S 33°17' E 152°01'2 2.4
2014-Jun-14 16:31S 33°15' E 151°60'6 6.6
2014-Jun-14 15:33S 33°09' E 151°59'1212.2
2014-Jun-14 14:33S 32°57' E 151°58'7 6.6
2014-Jun-14 13:33S 32°55' E 152°06'1313.0
2014-Jun-14 12:33S 32°51' E 152°20'1313.1
2014-Jun-14 11:33S 32°48' E 152°36'1212.1
2014-Jun-14 10:33S 32°40' E 152°47'1813.9
2014-Jun-14 09:15S 32°23' E 152°53'28615.3
2014-Jun-13 14:33S 27°44' E 154°07'3114.4
2014-Jun-13 12:24S 27°13' E 154°06'1214.4
2014-Jun-13 11:33S 27°01' E 154°06'5015.2
2014-Jun-13 08:15S 26°11' E 154°06'1115.3
2014-Jun-13 07:31S 25°59' E 154°06'1815.4
2014-Jun-13 06:20S 25°41' E 154°06'1714.9
2014-Jun-13 05:10S 25°24' E 154°06'1314.7
2014-Jun-13 04:18S 25°11' E 154°06'  
Track history (hours):
 
Tides and Currents Weather Stations Pressure Air Temp Water Temp Dewpoint Dewpoint Depression Visibility Wind Speed Wind Dir Waves Ship Positions

Fortune Wing

Last reported at 2014-Jun-17 18:07 UTC. Time now 2014-Jul-23 18:08 UTC.
Position S 27°23' E 154°06'.
Warning: this ship's position is 36 days out of date.

Length 190 m; draft 12 m.

Type: Cargo ship. MMSI: 477389500.

Date/timePositionNaut miles runAvg speedWind from/ knotsBaromVisibWave heightAir tempDewpointWater temp
2014-Jun-17 18:07S 27°23' E 154°06'31911.4
2014-Jun-16 14:07S 32°35' E 152°48'611.4
2014-Jun-16 13:33S 32°41' E 152°46'9 9.1
2014-Jun-16 12:33S 32°45' E 152°37'1212.1
2014-Jun-16 11:33S 32°50' E 152°23'1312.7
2014-Jun-16 10:34S 32°54' E 152°09'1212.4
2014-Jun-16 09:34S 32°59' E 151°56'7 7.4
2014-Jun-16 08:33S 32°55' E 151°48'2 1.7
2014-Jun-16 07:33S 32°54' E 151°46'0 0.0
2014-Jun-16 06:31S 32°54' E 151°46'0 0.0
2014-Jun-16 05:28S 32°54' E 151°46'0 0.1
2014-Jun-16 04:31S 32°54' E 151°46'0 0.1
2014-Jun-16 03:31S 32°54' E 151°46'0 0.1
2014-Jun-16 02:31S 32°54' E 151°46'0 0.0
2014-Jun-16 01:28S 32°54' E 151°46'0 0.0
2014-Jun-16 00:31S 32°54' E 151°46'0 0.0
2014-Jun-15 23:31S 32°54' E 151°46'0 0.0
2014-Jun-15 22:13S 32°54' E 151°46'0 0.1
2014-Jun-15 21:22S 32°54' E 151°46'0 0.1
2014-Jun-15 20:31S 32°54' E 151°46'0 0.0
2014-Jun-15 19:31S 32°54' E 151°46'0 0.1
2014-Jun-15 18:31S 32°54' E 151°46'0 0.0
2014-Jun-15 16:31S 32°54' E 151°46'0 0.0
2014-Jun-15 15:31S 32°54' E 151°46'0 0.1
2014-Jun-15 14:31S 32°54' E 151°46'0 0.1
2014-Jun-15 13:31S 32°54' E 151°46'0 0.0
2014-Jun-15 12:31S 32°54' E 151°46'0 0.0
2014-Jun-15 11:31S 32°54' E 151°46'0 0.0
2014-Jun-15 10:31S 32°54' E 151°46'0 0.1
2014-Jun-15 09:31S 32°54' E 151°46'0 0.1
2014-Jun-15 08:31S 32°54' E 151°46'0 0.0
2014-Jun-15 07:31S 32°54' E 151°46'0 0.0
2014-Jun-15 06:31S 32°54' E 151°46'0 0.1
2014-Jun-15 05:31S 32°54' E 151°46'0 0.0
2014-Jun-15 04:31S 32°54' E 151°46'0 0.0
2014-Jun-15 03:28S 32°54' E 151°46'0 0.0
2014-Jun-15 02:31S 32°54' E 151°46'0 0.0
2014-Jun-15 01:31S 32°54' E 151°46'0 0.1
2014-Jun-15 00:33S 32°54' E 151°46'4 3.9
2014-Jun-14 23:33S 32°55' E 151°51'8 8.4
2014-Jun-14 22:33S 33°03' E 151°54'1212.2
2014-Jun-14 21:33S 33°15' E 151°59'7 2.9
2014-Jun-14 19:07S 33°19' E 152°05'2 2.3
2014-Jun-14 18:13S 33°18' E 152°03'2 2.4
2014-Jun-14 17:31S 33°17' E 152°01'2 2.4
2014-Jun-14 16:31S 33°15' E 151°60'6 6.6
2014-Jun-14 15:33S 33°09' E 151°59'1212.2
2014-Jun-14 14:33S 32°57' E 151°58'7 6.6
2014-Jun-14 13:33S 32°55' E 152°06'1313.0
2014-Jun-14 12:33S 32°51' E 152°20'1313.1
2014-Jun-14 11:33S 32°48' E 152°36'1212.1
2014-Jun-14 10:33S 32°40' E 152°47'1813.9
2014-Jun-14 09:15S 32°23' E 152°53'28615.3
2014-Jun-13 14:33S 27°44' E 154°07'3114.4
2014-Jun-13 12:24S 27°13' E 154°06'1214.4
2014-Jun-13 11:33S 27°01' E 154°06'5015.2
2014-Jun-13 08:15S 26°11' E 154°06'1115.3
2014-Jun-13 07:31S 25°59' E 154°06'1815.4
2014-Jun-13 06:20S 25°41' E 154°06'1714.9
2014-Jun-13 05:10S 25°24' E 154°06'1314.7
2014-Jun-13 04:18S 25°11' E 154°06'  

Dump ship's entire track history